Devils Lake, North Dakota
Current Conditions -  °F | °C
As of 2:55 AM on Monday 22 Dec 2014 (Local Time) from KDVL Reporting Station
Overcast Overcast  
Wind Chill: -4°   Ceiling: 500
Heat Index: -1°   Visibility: 7mi
Dew Point: -4°   Wind: 6mph
Humidity: 80%   Direction: 120°ESE
Pressure: 29.47"   Gusts: NA
Location:  48.11°N, 98.86°W
Report Text: KDVL 220855Z AUTO 12005KT 7SM OVC005 M01/M04 A2947 RMK AO1 57007
Loading
Personal Weather Stations






























Interactive Weather Map New forecast layout! Learn more

10-Day Weather Forecast

Advertisements
Track Severe Weather on mobile